Time;durP1;ratioP1;P1;durP2;ratioP2;P2;SDS_P1;SDS_P2;PMS_P1;PMS_P2;Temp;Humidity;BMP_temperature;BMP_pressure;BME280_temperature;BME280_humidity;BME280_pressure;Samples;Min_cycle;Max_cycle;Signal;HPM_P1;HPM_P2
2022/12/10 00:01:34;;;;;;;50.17;30.23;;;;;;;1.76;100.00;99285.27;1810253;78;22435;-73
2022/12/10 00:04:00;;;;;;;49.73;31.17;;;;;;;1.72;100.00;99271.22;1804553;79;21061;-71
2022/12/10 00:06:30;;;;;;;53.08;31.75;;;;;;;1.61;100.00;99262.93;1787784;79;21024;-73
2022/12/10 00:08:57;;;;;;;46.88;29.55;;;;;;;1.51;100.00;99266.76;1799049;79;21029;-73
2022/12/10 00:11:23;;;;;;;46.15;30.23;;;;;;;1.48;100.00;99266.98;1814131;78;21005;-73
2022/12/10 00:13:51;;;;;;;42.05;27.27;;;;;;;1.59;100.00;99260.09;1814107;78;21011;-71
2022/12/10 00:16:20;;;;;;;45.33;28.90;;;;;;;1.59;100.00;99268.77;1812873;79;21045;-73
2022/12/10 00:18:46;;;;;;;47.67;31.23;;;;;;;1.52;100.00;99263.17;1812294;79;21584;-72
2022/12/10 00:21:17;;;;;;;43.33;27.40;;;;;;;1.47;100.00;99264.03;1793780;79;21007;-75
2022/12/10 00:23:45;;;;;;;43.85;27.98;;;;;;;1.52;100.00;99257.94;1781847;79;21029;-73
2022/12/10 00:26:18;;;;;;;46.15;28.05;;;;;;;1.68;100.00;99252.33;1798416;78;21037;-74
2022/12/10 00:28:45;;;;;;;43.68;27.65;;;;;;;1.68;100.00;99252.33;1800508;77;21199;-71
2022/12/10 00:31:21;;;;;;;41.80;26.82;;;;;;;1.62;100.00;99242.32;1766638;80;21030;-72
2022/12/10 00:33:58;;;;;;;42.78;25.82;;;;;;;1.57;100.00;99241.39;1812283;79;21010;-71
2022/12/10 00:36:31;;;;;;;41.77;25.90;;;;;;;1.59;100.00;99239.97;1810021;79;21010;-74
2022/12/10 00:38:59;;;;;;;41.90;26.40;;;;;;;1.65;100.00;99228.99;1808972;79;21594;-73
2022/12/10 00:41:26;;;;;;;42.38;26.33;;;;;;;1.65;100.00;99225.06;1780952;79;21108;-71
2022/12/10 00:43:54;;;;;;;39.75;24.07;;;;;;;1.59;100.00;99216.89;1813360;79;21077;-73
2022/12/10 00:46:20;;;;;;;42.83;24.43;;;;;;;1.47;100.00;99207.75;1813073;79;21056;-72
2022/12/10 00:48:47;;;;;;;39.75;24.02;;;;;;;1.44;100.00;99194.89;1809974;79;21021;-69
2022/12/10 00:51:18;;;;;;;39.38;24.92;;;;;;;1.52;99.93;99196.41;1811969;79;20994;-73
2022/12/10 00:53:47;;;;;;;41.73;24.80;;;;;;;1.45;99.91;99183.48;1782817;79;20962;-72
2022/12/10 00:56:19;;;;;;;45.00;25.45;;;;;;;1.45;99.91;99183.48;1789620;79;21015;-73
2022/12/10 00:58:50;;;;;;;39.33;23.92;;;;;;;1.42;100.00;99184.20;1813994;79;20986;-73
2022/12/10 01:01:34;;;;;;;42.65;24.20;;;;;;;1.36;100.00;99171.13;1808686;78;20997;-72
2022/12/10 01:04:05;;;;;;;;;;;;;;;1.54;99.52;99176.66;1800959;79;21597;-72
2022/12/10 01:06:48;;;;;;;41.15;23.35;;;;;;;1.52;99.64;99168.09;1808030;78;21152;-70
2022/12/10 01:09:19;;;;;;;43.90;24.10;;;;;;;1.46;99.85;99160.75;1790862;80;21029;-73
2022/12/10 01:11:47;;;;;;;36.20;19.80;;;;;;;1.34;99.80;99168.63;1766578;80;21072;-73
2022/12/10 01:14:20;;;;;;;33.13;18.80;;;;;;;1.35;99.78;99163.77;1775888;80;21470;-73
2022/12/10 01:16:49;;;;;;;34.00;20.82;;;;;;;1.44;99.36;99166.10;1769083;80;20991;-71
2022/12/10 01:19:16;;;;;;;34.08;20.43;;;;;;;1.47;99.46;99167.63;1790015;80;21123;-71
2022/12/10 01:21:43;;;;;;;39.25;21.93;;;;;;;1.42;99.90;99160.65;1766231;80;21102;-70
2022/12/10 01:24:09;;;;;;;38.45;21.60;;;;;;;1.28;99.91;99145.58;1806788;79;21029;-72
2022/12/10 01:26:36;;;;;;;30.62;19.30;;;;;;;1.40;99.97;99150.78;1810087;79;21134;-69
2022/12/10 01:29:04;;;;;;;31.40;20.02;;;;;;;1.49;99.38;99143.50;1804063;78;21515;-71
2022/12/10 01:31:34;;;;;;;29.87;19.15;;;;;;;1.49;99.39;99127.30;1799934;79;21533;-70
2022/12/10 01:34:01;;;;;;;31.02;18.23;;;;;;;1.46;99.71;99114.94;1782290;80;21064;-73
2022/12/10 01:36:31;;;;;;;28.27;16.77;;;;;;;1.42;99.81;99135.30;1797703;79;21483;-70
2022/12/10 01:38:58;;;;;;;26.00;17.23;;;;;;;1.54;99.71;99117.75;1812511;79;21060;-71
2022/12/10 01:41:31;;;;;;;29.55;16.45;;;;;;;1.54;99.71;99117.75;1809018;79;21638;-71
2022/12/10 01:44:08;;;;;;;28.47;16.85;;;;;;;1.55;99.65;99120.73;1814754;79;21084;-70
2022/12/10 01:46:41;;;;;;;27.62;16.80;;;;;;;1.50;99.90;99121.58;1795502;78;21091;-70
2022/12/10 01:49:11;;;;;;;;;;;;;;;1.44;99.98;99127.32;1821711;78;20974;-69
2022/12/10 01:51:40;;;;;;;25.37;15.32;;;;;;;1.54;99.79;99120.38;1817918;78;20133;-70
2022/12/10 01:54:11;;;;;;;27.40;15.75;;;;;;;1.58;100.00;99112.61;1823441;78;21080;-73
2022/12/10 01:56:41;;;;;;;21.75;13.32;;;;;;;1.53;100.00;99113.00;1823895;78;21058;-74
2022/12/10 01:59:07;;;;;;;22.62;13.65;;;;;;;1.48;100.00;99115.16;1806717;78;21092;-71
2022/12/10 02:02:23;;;;;;;20.35;12.82;;;;;;;1.52;100.00;99095.63;1816642;78;21516;-71
2022/12/10 02:05:19;;;;;;;20.00;12.10;;;;;;;1.58;100.00;99094.29;1791455;78;21045;-71
2022/12/10 02:08:05;;;;;;;21.05;12.53;;;;;;;1.54;100.00;99108.11;1790775;80;21025;-70
2022/12/10 02:11:01;;;;;;;18.95;11.80;;;;;;;1.43;100.00;99101.63;1816102;78;21234;-70
2022/12/10 02:13:37;;;;;;;15.93;11.28;;;;;;;1.43;100.00;99095.55;1826619;78;21500;-70
2022/12/10 02:16:27;;;;;;;19.10;12.10;;;;;;;1.49;100.00;99093.27;1826552;78;21508;-70
2022/12/10 02:19:02;;;;;;;23.73;12.63;;;;;;;1.43;100.00;99091.16;1823044;78;21018;-70
2022/12/10 02:21:35;;;;;;;15.68;10.98;;;;;;;1.33;100.00;99083.69;1784797;78;21040;-70
2022/12/10 02:24:05;;;;;;;18.98;11.78;;;;;;;1.31;100.00;99070.75;1810399;78;21921;-70
2022/12/10 02:26:53;;;;;;;18.87;10.98;;;;;;;1.42;100.00;99071.66;1821743;78;21051;-71
2022/12/10 02:29:21;;;;;;;21.68;11.40;;;;;;;1.41;100.00;99068.67;1801411;78;21033;-71
2022/12/10 02:32:05;;;;;;;20.90;11.03;;;;;;;1.32;100.00;99060.62;1806513;78;21009;-69
2022/12/10 02:34:36;;;;;;;17.00;11.33;;;;;;;1.27;100.00;99051.48;1804507;78;21079;-68
2022/12/10 02:37:06;;;;;;;18.15;11.48;;;;;;;1.32;100.00;99059.31;1818137;78;21205;-69
2022/12/10 02:39:38;;;;;;;20.00;11.10;;;;;;;1.35;100.00;99059.08;1826089;78;21080;-71
2022/12/10 02:42:05;;;;;;;16.27;9.55;;;;;;;1.29;100.00;99053.50;1806540;78;21636;-72
2022/12/10 02:44:31;;;;;;;19.30;10.05;;;;;;;1.17;100.00;99057.47;1814392;78;21100;-74
2022/12/10 02:46:58;;;;;;;12.15;8.75;;;;;;;1.15;100.00;99057.25;1818123;78;20965;-72
2022/12/10 02:49:27;;;;;;;15.45;8.88;;;;;;;1.20;100.00;99062.95;1804955;79;21573;-72
2022/12/10 02:51:54;;;;;;;14.83;9.40;;;;;;;1.18;100.00;99060.45;1779527;80;21057;-71
2022/12/10 02:54:42;;;;;;;15.13;9.95;;;;;;;1.15;100.00;99063.79;1801818;79;21073;-70
2022/12/10 02:57:39;;;;;;;19.42;10.05;;;;;;;1.10;100.00;99058.09;1813835;79;21095;-71
2022/12/10 03:00:18;;;;;;;16.07;10.15;;;;;;;1.18;100.00;99057.83;1784866;79;21068;-69
2022/12/10 03:03:21;;;;;;;22.65;10.82;;;;;;;1.21;100.00;99051.51;1813811;79;21115;-73
2022/12/10 03:06:14;;;;;;;14.00;10.43;;;;;;;1.17;100.00;99051.41;1788387;79;21035;-73
2022/12/10 03:08:53;;;;;;;17.52;9.95;;;;;;;1.16;100.00;99044.05;1773295;81;21652;-70
2022/12/10 03:11:22;;;;;;;18.92;12.10;;;;;;;1.21;100.00;99030.58;1784845;79;21034;-73
2022/12/10 03:13:54;;;;;;;23.85;10.93;;;;;;;1.31;100.00;99028.03;1810066;79;21045;-73
2022/12/10 03:16:21;;;;;;;14.75;10.50;;;;;;;1.28;100.00;99020.45;1815336;79;21083;-73
2022/12/10 03:18:51;;;;;;;16.37;9.85;;;;;;;1.24;100.00;99027.72;1797561;79;21068;-72
2022/12/10 03:21:18;;;;;;;16.40;10.90;;;;;;;1.19;100.00;99024.64;1779186;78;20991;-71
2022/12/10 03:23:46;;;;;;;16.48;11.63;;;;;;;1.24;100.00;99025.59;1804777;79;21049;-73
2022/12/10 03:26:12;;;;;;;19.20;11.38;;;;;;;1.27;100.00;99017.47;1807786;79;21111;-70
2022/12/10 03:28:47;;;;;;;21.40;11.93;;;;;;;1.22;100.00;99002.16;1788984;79;21214;-70
2022/12/10 03:31:13;;;;;;;14.83;10.15;;;;;;;1.19;100.00;98995.86;1810999;79;21024;-71
2022/12/10 03:33:40;;;;;;;15.83;11.10;;;;;;;1.19;100.00;98993.24;1784871;79;21548;-71
2022/12/10 03:36:07;;;;;;;14.60;10.63;;;;;;;1.25;100.00;98994.04;1813828;78;21087;-73
2022/12/10 03:38:34;;;;;;;13.80;10.63;;;;;;;1.24;100.00;98997.63;1781711;79;21107;-71
2022/12/10 03:41:00;;;;;;;16.82;12.10;;;;;;;1.18;100.00;98992.91;1809560;79;21116;-71
2022/12/10 03:43:27;;;;;;;14.38;10.75;;;;;;;1.12;100.00;98990.31;1762869;80;21251;-75
2022/12/10 03:45:54;;;;;;;15.65;10.95;;;;;;;1.15;100.00;98983.99;1774986;79;21010;-75
2022/12/10 03:48:20;;;;;;;20.23;10.40;;;;;;;1.24;100.00;98988.47;1789430;80;21014;-76
2022/12/10 03:50:47;;;;;;;16.97;11.20;;;;;;;1.21;100.00;98992.64;1784669;80;21097;-74
2022/12/10 03:53:13;;;;;;;18.77;11.00;;;;;;;1.09;100.00;98976.66;1811613;78;21075;-73
2022/12/10 03:55:39;;;;;;;18.02;10.70;;;;;;;1.03;100.00;98981.09;1779107;79;21061;-73
2022/12/10 03:58:06;;;;;;;19.25;11.22;;;;;;;1.09;100.00;98970.11;1787571;79;21001;-73
2022/12/10 04:00:33;;;;;;;15.05;9.75;;;;;;;1.11;100.00;98979.97;1814174;79;21013;-77
2022/12/10 04:02:59;;;;;;;14.50;11.18;;;;;;;1.05;100.00;98977.87;1790406;79;21062;-77
2022/12/10 04:05:26;;;;;;;16.40;11.00;;;;;;;0.96;100.00;98967.18;1807587;79;21210;-74
2022/12/10 04:07:53;;;;;;;16.15;10.70;;;;;;;0.98;100.00;98955.29;1813462;78;21009;-74
2022/12/10 04:10:21;;;;;;;17.37;10.55;;;;;;;1.10;100.00;98963.45;1784352;79;21048;-72
2022/12/10 04:16:26;;;;;;;17.65;11.12;;;;;;;1.08;100.00;98962.75;1785296;79;21072;-70
2022/12/10 04:18:01;;;;;;;14.98;9.98;;;;;;;1.00;100.00;98964.33;1751873;80;21319;-72
2022/12/10 04:28:42;;;;;;;16.80;11.75;;;;;;;0.93;100.00;98933.94;1736570;80;21033;-76
2022/12/10 04:31:09;;;;;;;16.65;11.33;;;;;;;0.97;100.00;98926.19;1706509;82;21235;-73
2022/12/10 04:33:35;;;;;;;19.20;12.75;;;;;;;1.04;100.00;98923.39;1780213;79;21560;-73
2022/12/10 04:36:02;;;;;;;19.77;13.00;;;;;;;1.03;100.00;98940.55;1788452;79;21058;-75
2022/12/10 04:38:29;;;;;;;19.77;13.08;;;;;;;1.00;100.00;98929.02;1809731;79;21097;-72
2022/12/10 04:40:56;;;;;;;17.02;11.45;;;;;;;0.95;100.00;98935.46;1814231;76;20898;-74
2022/12/10 04:43:22;;;;;;;14.93;10.48;;;;;;;1.00;100.00;98940.78;1809521;77;21064;-73
2022/12/10 04:45:49;;;;;;;19.05;12.03;;;;;;;1.06;100.00;98914.11;1804970;79;20984;-72
2022/12/10 04:48:15;;;;;;;20.32;12.30;;;;;;;0.99;100.00;98908.58;1813467;78;21532;-73
2022/12/10 04:50:41;;;;;;;19.35;12.90;;;;;;;0.89;100.00;98908.52;1798485;79;21049;-72
2022/12/10 04:53:09;;;;;;;15.25;10.65;;;;;;;0.86;100.00;98927.06;1784996;79;21032;-76
2022/12/10 04:55:35;;;;;;;16.82;10.82;;;;;;;0.91;100.00;98894.01;1785262;80;21206;-70
2022/12/10 04:58:02;;;;;;;17.07;11.78;;;;;;;0.86;100.00;98898.30;1786030;79;21537;-74
2022/12/10 05:00:28;;;;;;;18.05;12.65;;;;;;;0.75;100.00;98907.50;1807878;78;21630;-72
2022/12/10 05:02:55;;;;;;;15.88;10.60;;;;;;;0.69;100.00;98897.55;1818931;78;21076;-72
2022/12/10 05:05:21;;;;;;;14.98;10.80;;;;;;;0.73;100.00;98885.88;1817545;78;21003;-74
2022/12/10 05:07:48;;;;;;;14.70;10.20;;;;;;;0.80;100.00;98880.98;1819627;78;21189;-73
2022/12/10 05:10:14;;;;;;;17.77;11.33;;;;;;;0.80;100.00;98873.97;1806676;78;21092;-74
2022/12/10 05:12:41;;;;;;;17.35;10.15;;;;;;;0.76;100.00;98871.26;1822650;77;21005;-72
2022/12/10 05:15:09;;;;;;;14.98;10.10;;;;;;;0.69;100.00;98889.70;1791551;78;21665;-72
2022/12/10 05:17:36;;;;;;;14.60;10.18;;;;;;;0.70;100.00;98884.84;1807596;78;21130;-72
2022/12/10 05:20:04;;;;;;;15.48;10.65;;;;;;;0.78;100.00;98877.19;1817037;79;21233;-71
2022/12/10 05:25:15;;;;;;;14.18;10.23;;;;;;;0.66;100.00;98866.45;1759370;80;26542;-71
2022/12/10 05:27:42;;;;;;;17.17;10.93;;;;;;;0.61;100.00;98877.75;1795577;78;21001;-70
2022/12/10 05:30:10;;;;;;;13.55;9.80;;;;;;;0.66;100.00;98871.19;1815773;78;21083;-72
2022/12/10 05:32:36;;;;;;;18.07;12.40;;;;;;;0.77;100.00;98863.30;1783589;79;21767;-71
2022/12/10 05:35:03;;;;;;;14.23;10.93;;;;;;;0.78;100.00;98864.11;1810941;77;21016;-71
2022/12/10 05:37:30;;;;;;;17.75;11.75;;;;;;;0.73;100.00;98861.86;1788619;77;21061;-73
2022/12/10 05:39:57;;;;;;;13.03;9.45;;;;;;;0.70;100.00;98869.16;1772387;80;21254;-71
2022/12/10 05:42:23;;;;;;;15.23;10.38;;;;;;;0.73;100.00;98857.12;1764553;80;21093;-72
2022/12/10 05:44:49;;;;;;;14.40;10.78;;;;;;;0.81;100.00;98839.00;1747766;80;21131;-73
2022/12/10 05:47:16;;;;;;;14.95;10.10;;;;;;;0.81;100.00;98853.87;1750179;82;21058;-70
2022/12/10 05:49:42;;;;;;;15.45;10.70;;;;;;;0.71;100.00;98844.66;1750468;82;21058;-72
2022/12/10 05:52:09;;;;;;;14.80;9.70;;;;;;;0.69;100.00;98829.09;1749316;82;21044;-71
2022/12/10 05:54:36;;;;;;;15.50;11.00;;;;;;;0.82;100.00;98858.98;1772814;80;20950;-71
2022/12/10 05:57:02;;;;;;;15.35;10.78;;;;;;;0.82;100.00;98841.16;1741571;81;21705;-73
2022/12/10 05:59:28;;;;;;;13.43;10.43;;;;;;;0.76;100.00;98851.16;1778100;80;21661;-72
2022/12/10 06:01:55;;;;;;;13.85;10.08;;;;;;;0.71;100.00;98830.27;1776224;80;21010;-70
2022/12/10 06:04:23;;;;;;;11.08;8.70;;;;;;;0.72;100.00;98843.71;1715484;81;21549;-72
2022/12/10 06:06:49;;;;;;;13.58;8.83;;;;;;;0.81;100.00;98834.26;1758937;80;21069;-70
2022/12/10 06:09:16;;;;;;;14.25;10.40;;;;;;;0.78;100.00;98835.36;1739169;80;21143;-69
2022/12/10 06:11:44;;;;;;;15.80;9.50;;;;;;;0.70;100.00;98837.30;1765650;81;21466;-71
2022/12/10 06:14:11;;;;;;;14.53;9.55;;;;;;;0.64;100.00;98836.96;1764535;81;21516;-71
2022/12/10 06:16:38;;;;;;;11.63;8.68;;;;;;;0.66;100.00;98811.55;1764025;81;21033;-72
2022/12/10 06:19:05;;;;;;;11.10;8.68;;;;;;;0.76;100.00;98826.81;1767007;80;21096;-70
2022/12/10 06:21:31;;;;;;;12.85;10.08;;;;;;;0.72;100.00;98830.64;1740995;81;21840;-71
2022/12/10 06:23:58;;;;;;;13.60;9.55;;;;;;;0.61;100.00;98834.62;1755106;81;21528;-71
2022/12/10 06:26:25;;;;;;;13.55;9.20;;;;;;;0.56;100.00;98829.30;1762273;81;21017;-72
2022/12/10 06:28:52;;;;;;;17.37;10.40;;;;;;;0.65;100.00;98817.72;1737313;81;21022;-71
2022/12/10 06:31:19;;;;;;;15.08;10.75;;;;;;;0.66;100.00;98819.39;1758657;79;21045;-71
2022/12/10 06:33:46;;;;;;;15.70;10.63;;;;;;;0.62;100.00;98823.19;1759883;80;21195;-71
2022/12/10 06:36:14;;;;;;;15.18;10.75;;;;;;;0.58;100.00;98828.69;1736897;81;21029;-72
2022/12/10 06:38:41;;;;;;;12.40;9.65;;;;;;;0.65;100.00;98822.46;1745651;80;21092;-71
2022/12/10 06:41:10;;;;;;;11.97;9.33;;;;;;;0.71;100.00;98810.18;1751466;80;21085;-69
2022/12/10 06:43:36;;;;;;;13.03;9.75;;;;;;;0.68;100.00;98820.91;1747353;81;20883;-71
2022/12/10 06:46:10;;;;;;;13.90;9.38;;;;;;;0.66;100.00;98822.01;1761327;80;21265;-71
2022/12/10 06:48:36;;;;;;;11.57;8.30;;;;;;;0.68;100.00;98821.41;1730822;82;20981;-71
2022/12/10 06:51:04;;;;;;;11.22;8.45;;;;;;;0.80;100.00;98828.20;1737077;81;21130;-72
2022/12/10 06:53:33;;;;;;;13.15;9.08;;;;;;;0.77;100.00;98816.69;1744466;81;21077;-71
2022/12/10 06:56:01;;;;;;;12.58;8.45;;;;;;;0.74;100.00;98806.50;1743134;81;21112;-70
2022/12/10 06:58:32;;;;;;;12.95;7.78;;;;;;;0.76;100.00;98819.79;1711623;81;21137;-71
2022/12/10 07:01:20;;;;;;;11.15;7.85;;;;;;;0.85;100.00;98809.05;1729892;81;21049;-73
2022/12/10 07:03:54;;;;;;;10.58;7.80;;;;;;;0.79;100.00;98810.84;1721602;81;21122;-72
2022/12/10 07:06:21;;;;;;;10.43;7.60;;;;;;;0.79;100.00;98810.84;1734730;81;20966;-72
2022/12/10 07:08:48;;;;;;;10.43;7.47;;;;;;;0.82;100.00;98810.61;1717120;82;21072;-70
2022/12/10 07:11:17;;;;;;;16.30;9.75;;;;;;;0.93;100.00;98786.17;1730734;81;21259;-71
2022/12/10 07:13:43;;;;;;;9.63;8.10;;;;;;;0.92;100.00;98782.71;1742595;81;20923;-70
2022/12/10 07:16:16;;;;;;;11.65;8.38;;;;;;;0.87;100.00;98775.75;1757366;81;21009;-70
2022/12/10 07:18:43;;;;;;;9.60;7.75;;;;;;;0.90;100.00;98794.27;1753440;81;21006;-73
2022/12/10 07:21:26;;;;;;;9.45;7.10;;;;;;;0.98;100.00;98770.45;1743649;82;21558;-72
2022/12/10 07:23:57;;;;;;;11.40;9.08;;;;;;;0.98;100.00;98769.14;1777319;80;21052;-70
2022/12/10 07:26:23;;;;;;;10.75;7.95;;;;;;;0.91;100.00;98768.48;1717531;81;21085;-72
2022/12/10 07:28:49;;;;;;;12.58;7.60;;;;;;;0.90;100.00;98751.94;1736940;81;21468;-73
2022/12/10 07:31:17;;;;;;;11.10;7.15;;;;;;;1.00;100.00;98742.83;1735416;82;21033;-71
2022/12/10 07:33:45;;;;;;;11.50;7.33;;;;;;;1.03;100.00;98759.58;1735917;82;21418;-73
2022/12/10 07:36:12;;;;;;;11.33;7.83;;;;;;;0.97;100.00;98753.08;1736071;82;21963;-71
2022/12/10 07:38:39;;;;;;;10.48;8.00;;;;;;;0.99;100.00;98741.19;1735099;82;21018;-71
2022/12/10 07:41:08;;;;;;;12.07;7.72;;;;;;;1.09;100.00;98735.50;1734348;82;21102;-72
2022/12/10 07:43:37;;;;;;;11.20;8.68;;;;;;;1.13;100.00;98753.89;1757806;81;21056;-73
2022/12/10 07:46:13;;;;;;;11.28;8.18;;;;;;;1.09;100.00;98750.37;1748072;79;21073;-71
2022/12/10 07:48:41;;;;;;;12.95;8.73;;;;;;;1.05;100.00;98745.06;1746517;82;21113;-70
2022/12/10 07:51:07;;;;;;;13.98;8.48;;;;;;;1.16;100.00;98739.74;1746380;82;21038;-72
2022/12/10 07:53:34;;;;;;;12.33;8.88;;;;;;;1.16;100.00;98739.74;1755930;81;21076;-73
2022/12/10 07:56:00;;;;;;;11.48;9.08;;;;;;;1.15;100.00;98746.74;1764493;81;21080;-73
2022/12/10 07:58:27;;;;;;;10.18;8.30;;;;;;;1.12;100.00;98733.09;1764652;81;21069;-72
2022/12/10 08:00:54;;;;;;;11.08;8.63;;;;;;;1.14;100.00;98738.56;1734797;81;21195;-71
2022/12/10 08:03:20;;;;;;;12.15;9.03;;;;;;;1.25;100.00;98745.46;1736156;82;21021;-72
2022/12/10 08:05:48;;;;;;;13.72;9.20;;;;;;;1.25;100.00;98745.46;1737282;82;21017;-71
2022/12/10 08:08:15;;;;;;;12.03;7.92;;;;;;;1.20;100.00;98737.20;1734559;82;21037;-72
2022/12/10 08:10:41;;;;;;;13.10;9.05;;;;;;;1.25;100.00;98748.56;1734651;82;20978;-73
2022/12/10 08:13:08;;;;;;;15.70;9.88;;;;;;;1.36;100.00;98730.97;1739675;80;21234;-73
2022/12/10 08:15:35;;;;;;;11.80;8.78;;;;;;;1.38;100.00;98722.98;1760334;80;21497;-75
2022/12/10 08:18:01;;;;;;;13.72;8.58;;;;;;;1.29;100.00;98728.53;1779666;80;21025;-73
2022/12/10 08:20:28;;;;;;;14.58;9.03;;;;;;;1.28;100.00;98727.38;1778826;80;21046;-73
2022/12/10 08:22:54;;;;;;;11.65;8.10;;;;;;;1.35;100.00;98718.86;1778450;80;21500;-73
2022/12/10 08:25:21;;;;;;;17.60;9.98;;;;;;;1.34;100.00;98712.45;1774353;79;21134;-73
2022/12/10 08:27:47;;;;;;;11.45;9.00;;;;;;;1.28;100.00;98712.50;1777617;80;21014;-78
2022/12/10 08:30:13;;;;;;;11.25;8.90;;;;;;;1.31;100.00;98721.86;1778300;80;21018;-77
2022/12/10 08:32:40;;;;;;;17.23;10.72;;;;;;;1.40;100.00;98702.74;1777211;78;20947;-78
2022/12/10 08:35:07;;;;;;;13.22;10.35;;;;;;;1.35;100.00;98700.55;1746311;81;21028;-77
2022/12/10 08:37:34;;;;;;;12.70;9.65;;;;;;;1.35;100.00;98700.55;1756553;81;21793;-78
2022/12/10 08:40:00;;;;;;;13.10;10.28;;;;;;;1.47;100.00;98697.32;1735948;81;21552;-79
2022/12/10 08:42:26;;;;;;;15.75;10.05;;;;;;;1.46;100.00;98690.42;1761254;81;21040;-79
2022/12/10 08:44:53;;;;;;;14.25;11.08;;;;;;;1.46;100.00;98690.42;1752175;80;20966;-80
2022/12/10 08:47:19;;;;;;;15.08;11.22;;;;;;;1.41;100.00;98685.24;1814454;78;20989;-79
2022/12/10 08:49:46;;;;;;;13.08;10.10;;;;;;;1.43;100.00;98676.77;1809258;79;21209;-78
2022/12/10 08:52:12;;;;;;;15.48;10.70;;;;;;;1.54;100.00;98668.80;1780393;80;20973;-75
2022/12/10 08:54:39;;;;;;;14.80;11.40;;;;;;;1.52;100.00;98670.73;1780054;80;21006;-77
2022/12/10 08:57:05;;;;;;;13.58;10.20;;;;;;;1.50;100.00;98676.58;1801347;79;21076;-78
2022/12/10 08:59:32;;;;;;;13.13;9.95;;;;;;;1.63;100.00;98662.75;1812494;79;21054;-78
2022/12/10 09:01:59;;;;;;;13.15;10.45;;;;;;;1.63;100.00;98662.75;1812874;76;21090;-77
2022/12/10 09:04:26;;;;;;;17.77;11.90;;;;;;;1.61;100.00;98663.37;1815130;78;20993;-78
2022/12/10 09:06:52;;;;;;;15.60;10.90;;;;;;;1.52;100.00;98652.41;1812389;79;21579;-79
2022/12/10 09:09:19;;;;;;;13.00;10.48;;;;;;;1.60;100.00;98651.72;1811654;79;21123;-79
2022/12/10 09:11:45;;;;;;;11.05;9.33;;;;;;;1.60;100.00;98651.72;1811444;79;20982;-79
2022/12/10 09:14:13;;;;;;;12.70;9.73;;;;;;;1.61;100.00;98649.45;1811404;79;21130;-77
2022/12/10 09:16:39;;;;;;;13.65;10.08;;;;;;;1.57;100.00;98656.75;1811711;79;20987;-78
2022/12/10 09:19:06;;;;;;;12.10;9.43;;;;;;;1.73;100.00;98640.00;1812927;79;21093;-78
2022/12/10 09:21:33;;;;;;;12.85;9.35;;;;;;;1.73;100.00;98640.00;1811388;79;20963;-77
2022/12/10 09:24:00;;;;;;;16.60;10.32;;;;;;;1.71;100.00;98643.23;1810278;79;21096;-79
2022/12/10 09:26:27;;;;;;;13.62;8.70;;;;;;;1.66;100.00;98636.30;1811322;79;21845;-80
2022/12/10 09:28:54;;;;;;;13.70;9.03;;;;;;;1.70;100.00;98629.82;1811369;79;21683;-79
2022/12/10 09:31:21;;;;;;;13.80;9.43;;;;;;;1.83;100.00;98624.77;1807013;76;20970;-79
2022/12/10 09:33:49;;;;;;;12.13;9.43;;;;;;;1.86;100.00;98621.39;1805936;79;21040;-80
2022/12/10 09:36:15;;;;;;;14.20;10.13;;;;;;;1.86;100.00;98621.39;1803184;79;21009;-79
2022/12/10 09:38:43;;;;;;;13.80;8.83;;;;;;;1.86;100.00;98606.17;1779246;80;21281;-79
2022/12/10 09:41:42;;;;;;;12.13;8.68;;;;;;;1.96;100.00;98610.89;1786435;79;21052;-78
2022/12/10 09:44:31;;;;;;;17.10;10.15;;;;;;;1.96;100.00;98603.03;1811012;79;21034;-80
2022/12/10 09:47:00;;;;;;;12.78;9.90;;;;;;;1.96;100.00;98603.03;1814152;79;20994;-78
2022/12/10 09:50:18;;;;;;;14.23;9.13;;;;;;;1.87;100.00;98614.35;1818433;79;20931;-78
2022/12/10 09:52:47;;;;;;;12.63;9.38;;;;;;;1.87;100.00;98614.35;1812059;79;21177;-79
2022/12/10 09:55:17;;;;;;;12.33;9.78;;;;;;;1.97;100.00;98611.25;1811196;79;21077;-80
2022/12/10 09:57:49;;;;;;;15.38;10.40;;;;;;;1.93;100.00;98596.76;1809444;79;21050;-79
2022/12/10 10:01:35;;;;;;;13.87;10.43;;;;;;;1.91;100.00;98598.69;1874029;76;22411;-79
2022/12/10 10:04:04;;;;;;;14.85;10.70;;;;;;;1.91;100.00;98600.00;1827762;77;21512;-79
2022/12/10 10:06:31;;;;;;;15.78;11.28;;;;;;;1.97;100.00;98590.30;1826901;78;21094;-79
2022/12/10 10:08:59;;;;;;;15.20;11.22;;;;;;;1.87;100.00;98571.95;1816704;78;20985;-77
2022/12/10 10:11:33;;;;;;;19.67;11.10;;;;;;;1.88;100.00;98585.41;1796477;79;21015;-78
2022/12/10 10:14:13;;;;;;;18.70;10.80;;;;;;;1.91;100.00;98572.50;1796101;80;26442;-79
2022/12/10 10:16:53;;;;;;;16.25;11.57;;;;;;;2.05;100.00;98581.23;1795967;78;21061;-78
2022/12/10 10:19:30;;;;;;;17.52;12.53;;;;;;;2.05;100.00;98581.23;1794707;80;21109;-78
2022/12/10 10:21:57;;;;;;;17.60;11.73;;;;;;;1.98;100.00;98578.02;1795738;80;21007;-78
2022/12/10 10:24:28;;;;;;;16.30;12.03;;;;;;;2.07;100.00;98584.54;1779912;78;20997;-79
2022/12/10 10:26:58;;;;;;;15.20;12.00;;;;;;;2.07;100.00;98584.54;1759239;81;21012;-79
2022/12/10 10:29:26;;;;;;;18.12;13.10;;;;;;;2.06;100.00;98585.98;1723025;82;21069;-79
2022/12/10 10:32:15;;;;;;;19.90;12.58;;;;;;;2.00;100.00;98582.13;1749961;82;21106;-79
2022/12/10 10:34:42;;;;;;;17.35;12.30;;;;;;;2.11;100.00;98581.97;1760128;81;20961;-78
2022/12/10 10:37:17;;;;;;;19.52;13.40;;;;;;;2.11;100.00;98581.97;1719562;82;21597;-77
2022/12/10 10:39:48;;;;;;;19.07;14.18;;;;;;;2.07;100.00;98574.06;1748707;82;21097;-78
2022/12/10 10:42:23;;;;;;;16.40;11.63;;;;;;;2.03;100.00;98583.63;1760204;80;21491;-77
2022/12/10 10:44:50;;;;;;;19.25;12.50;;;;;;;2.15;100.00;98591.19;1771303;81;21517;-77
2022/12/10 10:47:28;;;;;;;21.90;14.47;;;;;;;2.15;100.00;98591.19;1773542;81;21030;-79
2022/12/10 10:49:55;;;;;;;21.52;14.45;;;;;;;2.18;100.00;98579.59;1769147;80;21022;-78
2022/12/10 10:52:22;;;;;;;21.27;14.50;;;;;;;2.17;100.00;98574.03;1775831;80;21998;-79
2022/12/10 10:54:49;;;;;;;21.48;13.95;;;;;;;2.15;100.00;98573.34;1790932;80;21059;-79
2022/12/10 10:57:35;;;;;;;22.13;15.15;;;;;;;2.22;100.00;98579.67;1781239;80;21111;-79
2022/12/10 11:00:25;;;;;;;19.57;14.93;;;;;;;2.25;100.00;98578.55;1763832;80;21260;-78
2022/12/10 11:02:49;;;;;;;22.27;14.43;;;;;;;2.19;100.00;98576.52;1748528;82;21057;-77
2022/12/10 11:05:27;;;;;;;19.07;13.53;;;;;;;2.11;100.00;98562.33;1748789;82;21021;-76
2022/12/10 11:08:04;;;;;;;16.50;11.95;;;;;;;2.18;100.00;98569.61;1749400;80;21104;-80
2022/12/10 11:10:31;;;;;;;21.93;13.88;;;;;;;2.24;100.00;98563.33;1748388;82;21930;-78
2022/12/10 11:13:04;;;;;;;18.02;12.65;;;;;;;2.22;100.00;98569.19;1747550;81;21069;-78
2022/12/10 11:15:39;;;;;;;21.68;13.53;;;;;;;2.15;100.00;98561.55;1748024;80;21053;-78
2022/12/10 11:18:32;;;;;;;21.75;13.00;;;;;;;2.19;100.00;98566.03;1747924;82;21073;-78
2022/12/10 11:21:04;;;;;;;18.77;13.40;;;;;;;2.26;100.00;98570.55;1748897;82;21029;-78
2022/12/10 11:23:43;;;;;;;16.77;11.53;;;;;;;2.23;100.00;98556.91;1763815;80;21904;-79
2022/12/10 11:26:21;;;;;;;19.98;13.03;;;;;;;2.19;100.00;98558.98;1750382;80;21046;-80
2022/12/10 11:29:13;;;;;;;18.95;13.48;;;;;;;2.24;100.00;98553.30;1780903;80;21755;-79
2022/12/10 11:32:00;;;;;;;17.82;12.10;;;;;;;2.35;100.00;98551.81;1779557;80;21597;-78
2022/12/10 11:35:09;;;;;;;17.12;12.60;;;;;;;2.31;100.00;98546.03;1779238;79;20986;-79
2022/12/10 11:37:50;;;;;;;19.65;12.28;;;;;;;2.29;100.00;98549.28;1778704;80;21210;-78
2022/12/10 11:40:43;;;;;;;25.97;15.15;;;;;;;2.40;100.00;98536.98;1777350;80;20966;-79
2022/12/10 11:43:41;;;;;;;20.62;13.43;;;;;;;2.35;100.00;98538.22;1778451;80;21600;-79
2022/12/10 11:46:38;;;;;;;19.20;12.18;;;;;;;2.31;100.00;98543.91;1778066;80;21097;-79
2022/12/10 11:49:17;;;;;;;15.78;11.45;;;;;;;2.38;100.00;98562.02;1750986;80;21026;-79
2022/12/10 11:52:04;;;;;;;20.17;14.20;;;;;;;2.43;100.00;98549.28;1747884;82;21718;-79
2022/12/10 11:54:59;;;;;;;26.07;15.00;;;;;;;2.43;100.00;98549.28;1749395;82;21317;-79